Time;durP1;ratioP1;P1;durP2;ratioP2;P2;SDS_P1;SDS_P2;PMS_P1;PMS_P2;Temp;Humidity;BMP_temperature;BMP_pressure;BME280_temperature;BME280_humidity;BME280_pressure;Samples;Min_cycle;Max_cycle;Signal;HPM_P1;HPM_P2
2021/12/02 00:00:06;;;;;;;17.00;15.70;;;;;;;7.84;100.00;96831.59;2038885;29;20235;-72
2021/12/02 00:01:16;;;;;;;16.88;15.68;;;;;;;7.84;100.00;96841.44;2039197;28;20676;-73
2021/12/02 00:02:20;;;;;;;16.48;15.30;;;;;;;7.82;100.00;96844.41;2038669;29;20230;-72
2021/12/02 00:03:21;;;;;;;16.85;15.60;;;;;;;7.90;100.00;96830.22;2039041;29;20613;-73
2021/12/02 00:04:22;;;;;;;16.90;15.80;;;;;;;7.92;100.00;96833.34;2038750;29;20230;-72
2021/12/02 00:05:24;;;;;;;16.52;15.43;;;;;;;7.90;100.00;96827.59;2030686;29;20250;-73
2021/12/02 00:06:26;;;;;;;16.75;15.35;;;;;;;7.88;100.00;96837.00;2038914;29;20610;-72
2021/12/02 00:07:29;;;;;;;15.60;14.55;;;;;;;7.99;100.00;96829.34;2038679;29;20250;-73
2021/12/02 00:08:33;;;;;;;15.63;14.63;;;;;;;7.88;100.00;96831.69;2038891;29;20339;-72
2021/12/02 00:09:38;;;;;;;16.60;15.57;;;;;;;7.83;100.00;96835.34;2039561;28;20730;-73
2021/12/02 00:10:40;;;;;;;17.50;16.30;;;;;;;7.87;100.00;96830.13;2038283;29;20223;-73
2021/12/02 00:11:42;;;;;;;17.17;15.98;;;;;;;7.92;100.00;96836.00;2038653;29;20286;-72
2021/12/02 00:12:44;;;;;;;17.40;16.30;;;;;;;7.86;100.00;96831.25;2039384;28;20226;-72
2021/12/02 00:13:53;;;;;;;17.50;16.33;;;;;;;7.80;100.00;96838.66;2038587;29;20257;-72
2021/12/02 00:14:55;;;;;;;17.08;15.88;;;;;;;7.87;100.00;96841.53;2038352;28;20251;-72
2021/12/02 00:16:01;;;;;;;16.90;15.70;;;;;;;7.88;100.00;96827.16;2039038;29;20278;-72
2021/12/02 00:17:08;;;;;;;17.00;16.00;;;;;;;7.92;100.00;96828.03;2038818;29;20261;-72
2021/12/02 00:21:04;;;;;;;17.23;16.02;;;;;;;7.89;100.00;96826.03;2038291;29;20635;-73
2021/12/02 00:22:06;;;;;;;16.88;15.77;;;;;;;7.85;100.00;96822.50;2038702;28;20317;-73
2021/12/02 00:23:35;;;;;;;17.08;15.98;;;;;;;7.80;100.00;96829.91;2038164;29;20709;-75
2021/12/02 00:24:38;;;;;;;16.35;15.32;;;;;;;7.85;100.00;96830.47;2033877;29;20382;-72
2021/12/02 00:25:41;;;;;;;17.52;16.25;;;;;;;7.84;100.00;96826.28;2030523;29;20286;-73
2021/12/02 00:26:42;;;;;;;17.08;15.85;;;;;;;7.81;100.00;96832.22;2030671;29;20239;-72
2021/12/02 00:27:45;;;;;;;16.23;15.13;;;;;;;7.82;100.00;96831.16;2038516;29;20281;-73
2021/12/02 00:28:50;;;;;;;16.95;15.85;;;;;;;7.78;100.00;96832.13;2039257;28;20270;-73
2021/12/02 00:30:02;;;;;;;17.02;15.77;;;;;;;7.75;100.00;96835.47;2039363;28;20227;-72
2021/12/02 00:31:03;;;;;;;16.55;15.45;;;;;;;7.75;100.00;96832.81;2039174;28;20234;-72
2021/12/02 00:32:06;;;;;;;16.60;15.40;;;;;;;7.82;100.00;96823.19;2038835;29;20305;-72
2021/12/02 00:33:07;;;;;;;19.20;17.70;;;;;;;7.83;100.00;96843.31;2030345;29;20227;-74
2021/12/02 00:34:10;;;;;;;19.57;18.00;;;;;;;7.79;100.00;96833.69;2038554;29;20262;-73
2021/12/02 00:35:11;;;;;;;17.52;16.33;;;;;;;7.80;100.00;96830.69;2039281;28;20854;-73
2021/12/02 00:36:13;;;;;;;17.73;16.63;;;;;;;7.84;100.00;96825.50;2038236;29;20235;-72
2021/12/02 00:37:17;;;;;;;17.35;16.23;;;;;;;7.90;100.00;96824.94;2030782;29;20219;-73
2021/12/02 00:38:18;;;;;;;16.88;15.80;;;;;;;7.85;100.00;96827.81;2038720;29;20226;-72
2021/12/02 00:39:22;;;;;;;17.80;16.70;;;;;;;7.94;100.00;96833.78;2030717;29;20635;-73
2021/12/02 00:40:22;;;;;;;17.35;16.13;;;;;;;8.05;100.00;96831.44;2038172;29;20317;-74
2021/12/02 00:41:26;;;;;;;17.57;16.40;;;;;;;8.05;100.00;96830.69;2038334;29;20230;-72
2021/12/02 00:42:27;;;;;;;17.33;16.25;;;;;;;7.99;100.00;96835.44;2030787;29;20721;-73
2021/12/02 00:43:29;;;;;;;18.17;16.97;;;;;;;7.97;100.00;96831.56;2038398;29;20603;-73
2021/12/02 00:44:32;;;;;;;17.85;16.38;;;;;;;7.94;100.00;96833.03;2038299;29;20318;-73
2021/12/02 00:45:35;;;;;;;17.45;16.35;;;;;;;8.04;100.00;96834.44;2038611;29;20306;-73
2021/12/02 00:46:36;;;;;;;16.75;15.75;;;;;;;8.01;100.00;96841.22;2038430;29;20803;-72
2021/12/02 00:47:38;;;;;;;17.23;16.20;;;;;;;8.03;100.00;96832.91;2030428;29;20769;-74
2021/12/02 00:48:39;;;;;;;17.27;16.27;;;;;;;8.05;100.00;96828.03;2038532;29;20709;-73
2021/12/02 00:49:41;;;;;;;18.17;16.98;;;;;;;8.08;100.00;96836.13;2038509;29;20706;-72
2021/12/02 00:50:48;;;;;;;18.17;16.98;;;;;;;8.05;100.00;96836.00;2030775;29;20584;-73
2021/12/02 00:51:53;;;;;;;17.77;16.67;;;;;;;8.03;100.00;96832.91;2038524;29;20249;-73
2021/12/02 00:52:54;;;;;;;18.02;16.83;;;;;;;7.97;100.00;96834.22;2037916;29;20752;-73
2021/12/02 00:54:01;;;;;;;17.08;16.08;;;;;;;7.91;100.00;96831.81;2038433;29;20323;-72
2021/12/02 00:55:05;;;;;;;16.38;15.38;;;;;;;7.97;100.00;96845.63;2038486;29;20705;-72
2021/12/02 00:56:07;;;;;;;17.48;16.30;;;;;;;8.06;100.00;96845.50;2038471;29;20247;-72
2021/12/02 00:57:11;;;;;;;17.40;16.00;;;;;;;8.00;100.00;96847.63;2038666;28;20354;-73
2021/12/02 00:58:18;;;;;;;17.23;16.20;;;;;;;7.96;100.00;96853.91;2039050;28;20443;-72
2021/12/02 00:59:21;;;;;;;18.08;16.98;;;;;;;7.96;100.00;96843.28;2039075;28;20694;-73
2021/12/02 01:00:22;;;;;;;17.67;16.58;;;;;;;7.90;100.00;96835.53;2038636;28;20233;-74
2021/12/02 01:01:26;;;;;;;17.73;16.60;;;;;;;7.87;100.00;96862.78;2039017;28;20234;-73
2021/12/02 01:02:27;;;;;;;17.90;16.80;;;;;;;7.97;100.00;96831.56;2038242;29;20239;-72
2021/12/02 01:03:33;;;;;;;17.75;16.35;;;;;;;7.92;100.00;96830.69;2038334;29;20231;-72
2021/12/02 01:04:34;;;;;;;16.67;15.68;;;;;;;7.97;100.00;96839.53;2039117;28;20688;-72
2021/12/02 01:05:36;;;;;;;17.17;16.02;;;;;;;7.95;100.00;96834.56;2038986;28;20230;-73
2021/12/02 01:06:37;;;;;;;16.75;15.73;;;;;;;7.97;100.00;96842.97;2037834;29;20235;-74
2021/12/02 01:07:39;;;;;;;16.73;15.73;;;;;;;7.91;100.00;96834.47;2038259;29;20702;-73
2021/12/02 01:08:40;;;;;;;16.77;15.75;;;;;;;7.88;100.00;96835.09;2038241;29;20459;-72
2021/12/02 01:09:42;;;;;;;17.73;16.63;;;;;;;7.89;100.00;96855.25;2038373;29;20250;-73
2021/12/02 01:10:45;;;;;;;17.30;16.30;;;;;;;7.99;100.00;96838.09;2037724;29;20301;-74
2021/12/02 01:11:47;;;;;;;16.77;15.68;;;;;;;8.06;100.00;96851.59;2038306;29;20684;-73
2021/12/02 01:12:49;;;;;;;16.88;15.88;;;;;;;7.97;100.00;96837.66;2038608;28;20277;-73
2021/12/02 01:13:51;;;;;;;17.17;16.08;;;;;;;7.92;100.00;96835.25;2038915;28;20218;-73
2021/12/02 01:14:52;;;;;;;16.77;15.68;;;;;;;7.94;100.00;96838.31;2038661;28;20559;-74
2021/12/02 01:15:54;;;;;;;17.00;15.90;;;;;;;7.92;100.00;96832.59;2038154;29;20235;-73
2021/12/02 01:16:55;;;;;;;17.83;16.63;;;;;;;7.91;100.00;96834.47;2038127;29;20658;-72
2021/12/02 01:18:00;;;;;;;17.52;16.35;;;;;;;7.87;100.00;96841.53;2038968;28;20258;-73
2021/12/02 01:19:03;;;;;;;17.08;15.98;;;;;;;7.84;100.00;96842.22;2038096;29;20242;-73
2021/12/02 01:20:07;;;;;;;17.08;16.00;;;;;;;7.98;100.00;96828.56;2038030;29;20227;-74
2021/12/02 01:21:14;;;;;;;16.55;15.52;;;;;;;7.98;100.00;96851.69;2037913;28;20244;-72
2021/12/02 01:22:16;;;;;;;16.45;15.45;;;;;;;7.94;100.00;96833.03;2038095;29;20290;-72
2021/12/02 01:23:18;;;;;;;16.63;15.63;;;;;;;7.99;100.00;96847.94;2038403;29;20222;-72
2021/12/02 01:24:20;;;;;;;17.02;15.93;;;;;;;7.93;100.00;96861.44;2038290;29;20610;-72
2021/12/02 01:25:22;;;;;;;16.88;15.88;;;;;;;7.95;100.00;96837.22;2038152;29;20231;-72
2021/12/02 01:26:26;;;;;;;17.02;16.02;;;;;;;7.91;100.00;96829.16;2029738;29;20254;-73
2021/12/02 01:27:28;;;;;;;16.98;15.98;;;;;;;7.92;100.00;96838.66;2038253;29;20579;-73
2021/12/02 01:28:29;;;;;;;16.35;15.25;;;;;;;7.90;100.00;96824.16;2038827;28;20690;-72
2021/12/02 01:29:33;;;;;;;16.70;15.70;;;;;;;7.95;100.00;96834.56;2038391;29;20237;-73
2021/12/02 01:30:34;;;;;;;16.77;15.77;;;;;;;7.93;100.00;96829.59;2030729;29;20291;-72
2021/12/02 01:31:37;;;;;;;15.40;14.50;;;;;;;8.00;100.00;96829.03;2038221;29;20702;-73
2021/12/02 01:32:39;;;;;;;17.55;16.40;;;;;;;8.05;100.00;96836.00;2037817;28;20583;-73
2021/12/02 01:33:45;;;;;;;17.30;16.20;;;;;;;7.96;100.00;96830.78;2038896;28;20730;-72
2021/12/02 01:34:47;;;;;;;17.20;16.00;;;;;;;7.96;100.00;96822.06;2038057;29;20313;-73
2021/12/02 01:35:50;;;;;;;17.65;16.55;;;;;;;7.97;100.00;96819.06;2038116;29;20274;-72
2021/12/02 01:36:53;;;;;;;17.98;16.88;;;;;;;8.00;100.00;96836.22;2038874;28;20286;-72
2021/12/02 01:37:54;;;;;;;17.00;16.00;;;;;;;7.90;100.00;96846.16;2038545;28;20595;-73
2021/12/02 01:38:56;;;;;;;16.87;15.83;;;;;;;7.91;100.00;96826.50;2037659;29;20302;-72
2021/12/02 01:40:00;;;;;;;17.30;16.17;;;;;;;7.85;100.00;96827.81;2030155;29;20770;-72
2021/12/02 01:41:04;;;;;;;17.50;16.23;;;;;;;7.90;100.00;96832.13;2038049;29;20235;-72
2021/12/02 01:42:09;;;;;;;17.42;16.33;;;;;;;7.88;100.00;96832.47;2038831;28;20686;-73
2021/12/02 01:43:10;;;;;;;17.23;16.08;;;;;;;7.93;100.00;96834.91;2037406;29;20235;-73
2021/12/02 01:44:13;;;;;;;17.42;16.10;;;;;;;7.90;100.00;96840.84;2030409;29;20275;-73
2021/12/02 01:45:15;;;;;;;17.13;16.13;;;;;;;7.87;100.00;96836.22;2030458;29;20262;-72
2021/12/02 01:46:19;;;;;;;18.48;17.27;;;;;;;7.89;100.00;96839.31;2038259;29;20620;-72
2021/12/02 01:47:25;;;;;;;17.65;16.58;;;;;;;7.98;100.00;96836.53;2038098;29;20640;-72
2021/12/02 01:48:28;;;;;;;16.88;15.88;;;;;;;7.98;100.00;96841.09;2037736;29;20616;-72
2021/12/02 01:49:35;;;;;;;17.58;16.48;;;;;;;7.92;100.00;96843.97;2030838;29;20287;-73
2021/12/02 01:50:38;;;;;;;17.30;16.30;;;;;;;8.00;100.00;96850.28;2030654;29;20244;-72
2021/12/02 01:51:42;;;;;;;17.67;16.52;;;;;;;7.91;100.00;96841.66;2037711;29;20254;-72
2021/12/02 01:52:46;;;;;;;17.45;16.33;;;;;;;7.85;100.00;96838.44;2038677;28;20231;-73
2021/12/02 01:53:52;;;;;;;16.05;15.05;;;;;;;7.90;100.00;96846.16;2038311;29;20223;-73
2021/12/02 01:55:04;;;;;;;16.83;15.73;;;;;;;7.87;100.00;96852.16;2037460;29;20294;-73
2021/12/02 01:56:10;;;;;;;16.55;15.50;;;;;;;7.86;100.00;96849.84;2038159;29;20246;-73
2021/12/02 01:57:30;;;;;;;15.57;14.68;;;;;;;7.84;100.00;96844.09;2037602;29;20230;-73
2021/12/02 01:58:31;;;;;;;16.58;15.57;;;;;;;7.79;100.00;96850.38;2032362;29;20756;-73
2021/12/02 01:59:34;;;;;;;16.45;15.45;;;;;;;7.80;100.00;96843.97;2030306;29;20638;-72
2021/12/02 02:00:41;;;;;;;16.30;15.40;;;;;;;7.86;100.00;96844.53;2038001;29;20253;-73
2021/12/02 02:01:44;;;;;;;16.70;15.70;;;;;;;7.97;100.00;96863.44;2037479;29;20230;-72
2021/12/02 02:02:47;;;;;;;17.05;15.95;;;;;;;7.89;100.00;96860.56;2038103;29;20238;-73
2021/12/02 02:03:50;;;;;;;17.73;16.48;;;;;;;7.82;100.00;96849.72;2038087;29;20675;-72
2021/12/02 02:04:51;;;;;;;17.15;16.15;;;;;;;7.77;100.00;96854.47;2037931;29;20222;-72
2021/12/02 02:05:57;;;;;;;16.83;15.73;;;;;;;7.74;100.00;96850.63;2038002;29;20246;-72
2021/12/02 02:06:59;;;;;;;17.17;16.08;;;;;;;7.81;100.00;96852.69;2037467;29;20226;-72
2021/12/02 02:08:03;;;;;;;16.58;15.57;;;;;;;7.79;100.00;96852.25;2037985;29;20628;-73
2021/12/02 02:09:06;;;;;;;17.05;16.05;;;;;;;7.73;100.00;96841.09;2038795;28;20621;-73
2021/12/02 02:10:07;;;;;;;16.73;15.73;;;;;;;7.77;100.00;96851.81;2038042;29;20253;-74
2021/12/02 02:11:08;;;;;;;16.58;15.57;;;;;;;7.76;100.00;96848.41;2029674;29;20231;-73
2021/12/02 02:12:14;;;;;;;16.67;15.68;;;;;;;7.78;100.00;96863.97;2037783;29;20231;-73
2021/12/02 02:13:16;;;;;;;16.58;15.48;;;;;;;7.80;100.00;96846.63;2038733;28;20227;-72
2021/12/02 02:14:18;;;;;;;16.77;15.75;;;;;;;7.80;100.00;96853.81;2038107;29;20233;-73
2021/12/02 02:15:20;;;;;;;17.38;16.27;;;;;;;7.90;100.00;96856.00;2037797;29;20223;-72
2021/12/02 02:16:23;;;;;;;18.55;17.45;;;;;;;7.86;100.00;96849.84;2029815;29;20278;-74
2021/12/02 02:17:26;;;;;;;19.67;18.30;;;;;;;7.81;100.00;96848.16;2030288;29;20776;-73
2021/12/02 02:18:28;;;;;;;18.05;16.95;;;;;;;7.80;100.00;96851.91;2030316;29;20232;-73
2021/12/02 02:19:31;;;;;;;17.83;16.73;;;;;;;7.75;100.00;96859.34;2037828;29;20267;-73
2021/12/02 02:20:40;;;;;;;17.50;16.40;;;;;;;7.78;100.00;96848.06;2030489;29;20575;-72
2021/12/02 02:21:43;;;;;;;17.63;16.52;;;;;;;7.82;100.00;96844.41;2037692;28;20313;-72
2021/12/02 02:22:44;;;;;;;16.50;15.50;;;;;;;7.81;100.00;96850.03;2038794;28;20234;-73
2021/12/02 02:23:50;;;;;;;16.55;15.45;;;;;;;7.82;100.00;96870.19;2040193;28;20257;-73
2021/12/02 02:24:52;;;;;;;16.30;15.30;;;;;;;7.83;100.00;96851.28;2039687;29;20245;-74
2021/12/02 02:25:54;;;;;;;16.40;15.40;;;;;;;7.86;100.00;96839.97;2031310;29;20306;-72
2021/12/02 02:26:55;;;;;;;15.73;14.73;;;;;;;7.88;100.00;96856.34;2031593;29;20298;-73
2021/12/02 02:27:56;;;;;;;16.63;15.63;;;;;;;7.91;100.00;96841.66;2039573;29;20242;-72
2021/12/02 02:29:00;;;;;;;16.40;15.40;;;;;;;7.91;100.00;96855.69;2040298;28;20685;-73
2021/12/02 02:30:01;;;;;;;16.75;15.65;;;;;;;7.94;100.00;96856.91;2039521;29;20226;-72
2021/12/02 02:31:03;;;;;;;17.40;16.27;;;;;;;7.89;100.00;96849.94;2039512;29;20246;-73
2021/12/02 02:32:06;;;;;;;16.67;15.50;;;;;;;7.88;100.00;96851.03;2039562;29;20732;-73
2021/12/02 02:33:07;;;;;;;16.50;15.40;;;;;;;7.83;100.00;96853.94;2039172;28;20251;-76
2021/12/02 02:34:09;;;;;;;16.10;15.10;;;;;;;7.79;100.00;96850.38;2040243;28;20740;-73
2021/12/02 02:35:10;;;;;;;16.13;15.13;;;;;;;7.81;100.00;96861.44;2040090;28;20454;-72
2021/12/02 02:36:13;;;;;;;15.80;14.80;;;;;;;7.83;100.00;96848.63;2040111;28;20233;-73
2021/12/02 02:37:15;;;;;;;16.10;14.90;;;;;;;7.88;100.00;96866.97;2040227;28;20670;-73
2021/12/02 02:38:17;;;;;;;16.60;15.50;;;;;;;7.87;100.00;96873.38;2040021;28;20648;-72
2021/12/02 02:39:19;;;;;;;15.43;14.45;;;;;;;7.81;100.00;96858.78;2040151;28;20257;-73
2021/12/02 02:40:21;;;;;;;15.80;14.90;;;;;;;7.80;100.00;96856.47;2039712;29;20824;-73
2021/12/02 02:41:22;;;;;;;16.10;15.10;;;;;;;7.79;100.00;96868.97;2039173;28;20230;-75
2021/12/02 02:42:25;;;;;;;16.73;15.73;;;;;;;7.89;100.00;96855.25;2040035;28;20226;-72
2021/12/02 02:43:27;;;;;;;18.23;15.85;;;;;;;7.80;100.00;96865.19;2039206;29;20255;-73
2021/12/02 02:44:33;;;;;;;16.70;15.70;;;;;;;7.77;100.00;96860.56;2039463;29;20612;-72
2021/12/02 02:45:34;;;;;;;16.30;15.20;;;;;;;7.89;100.00;96865.84;2039544;29;20658;-72
2021/12/02 02:46:37;;;;;;;16.10;15.10;;;;;;;7.83;100.00;96864.56;2039686;29;20233;-73
2021/12/02 02:47:39;;;;;;;17.17;15.93;;;;;;;7.78;100.00;96854.13;2039777;28;20670;-73
2021/12/02 02:48:41;;;;;;;17.20;16.10;;;;;;;7.75;100.00;96865.44;2040009;28;20225;-73
2021/12/02 02:49:42;;;;;;;16.42;15.40;;;;;;;7.71;100.00;96859.22;2039505;29;20753;-72
2021/12/02 02:50:44;;;;;;;16.63;15.63;;;;;;;7.74;100.00;96857.81;2039419;29;20229;-72
2021/12/02 02:51:47;;;;;;;16.67;15.68;;;;;;;7.78;100.00;96864.75;2040198;28;20702;-73
2021/12/02 02:52:49;;;;;;;16.27;15.27;;;;;;;7.83;100.00;96861.91;2039068;29;20223;-73
2021/12/02 02:53:53;;;;;;;16.70;15.70;;;;;;;7.76;100.00;96866.97;2031575;29;20235;-72
2021/12/02 02:54:55;;;;;;;16.92;15.93;;;;;;;7.68;100.00;96861.78;2031252;29;20252;-71
2021/12/02 02:56:06;;;;;;;16.88;15.77;;;;;;;7.68;100.00;96864.44;2039288;29;20238;-73
2021/12/02 02:57:10;;;;;;;16.27;15.32;;;;;;;7.66;100.00;96856.81;2039873;28;20230;-75
2021/12/02 02:58:18;;;;;;;16.70;15.70;;;;;;;7.73;100.00;96865.00;2039938;28;20698;-74
2021/12/02 02:59:27;;;;;;;16.80;15.52;;;;;;;7.76;100.00;96864.31;2040035;28;20226;-73
2021/12/02 03:00:32;;;;;;;16.60;15.60;;;;;;;7.81;100.00;96873.94;2039521;28;20291;-72
2021/12/02 03:01:51;;;;;;;17.23;16.13;;;;;;;7.83;100.00;96863.78;2039110;29;20230;-73
2021/12/02 03:02:58;;;;;;;18.42;17.13;;;;;;;7.76;100.00;96851.06;2032763;29;20235;-76
2021/12/02 03:04:05;;;;;;;18.58;17.30;;;;;;;7.69;100.00;96861.44;2039277;29;20318;-73
2021/12/02 03:05:19;;;;;;;17.20;15.90;;;;;;;7.71;100.00;96872.50;2040032;28;20227;-72
2021/12/02 03:06:29;;;;;;;16.10;14.98;;;;;;;7.64;100.00;96854.47;2039342;28;20250;-72
2021/12/02 03:07:36;;;;;;;16.30;15.30;;;;;;;7.65;100.00;96873.84;2039674;28;20627;-72
2021/12/02 03:08:42;;;;;;;16.85;15.70;;;;;;;7.63;100.00;96858.22;2038833;29;20235;-74
2021/12/02 03:10:02;;;;;;;16.38;15.38;;;;;;;7.75;100.00;96867.31;2039216;29;20610;-73
2021/12/02 03:11:05;;;;;;;16.55;15.55;;;;;;;7.76;100.00;96869.63;2038983;29;20257;-72
2021/12/02 03:12:13;;;;;;;16.95;15.95;;;;;;;7.84;100.00;96867.97;2039367;29;20233;-72
2021/12/02 03:13:19;;;;;;;16.73;15.73;;;;;;;7.85;100.00;96880.16;2039338;28;20702;-72
2021/12/02 03:14:27;;;;;;;16.60;15.60;;;;;;;7.76;100.00;96877.59;2039231;29;20741;-73
2021/12/02 03:16:53;;;;;;;16.55;15.48;;;;;;;7.75;100.00;96864.66;2038687;29;20226;-72
2021/12/02 03:17:55;;;;;;;16.70;15.70;;;;;;;7.77;100.00;96863.22;2031172;29;20613;-73
2021/12/02 03:18:56;;;;;;;16.98;15.93;;;;;;;7.81;100.00;96864.09;2039465;29;20265;-73
2021/12/02 03:19:58;;;;;;;17.50;16.40;;;;;;;7.77;100.00;96873.06;2039164;29;20237;-74
2021/12/02 03:20:59;;;;;;;16.45;15.45;;;;;;;7.74;100.00;96866.53;2039863;28;20237;-72
2021/12/02 03:22:01;;;;;;;16.80;15.60;;;;;;;7.79;100.00;96871.63;2039866;28;20278;-73
2021/12/02 03:23:03;;;;;;;16.08;15.10;;;;;;;7.81;100.00;96874.69;2039752;28;20697;-72
2021/12/02 03:24:05;;;;;;;15.90;14.90;;;;;;;7.75;100.00;96875.28;2039056;29;20223;-73
2021/12/02 03:25:09;;;;;;;16.58;15.48;;;;;;;7.81;100.00;96881.91;2038823;28;20694;-74
2021/12/02 03:26:10;;;;;;;16.05;15.05;;;;;;;7.70;100.00;96868.28;2039123;29;20233;-72
2021/12/02 03:27:12;;;;;;;16.20;15.10;;;;;;;7.78;100.00;96870.06;2039283;29;20238;-72
2021/12/02 03:28:14;;;;;;;16.33;15.13;;;;;;;7.78;100.00;96867.41;2039155;29;20786;-72
2021/12/02 03:29:15;;;;;;;17.23;16.02;;;;;;;7.80;100.00;96867.84;2039772;28;20298;-73
2021/12/02 03:30:17;;;;;;;16.55;15.55;;;;;;;7.80;100.00;96873.16;2039734;28;20231;-72
2021/12/02 03:31:20;;;;;;;16.50;15.50;;;;;;;7.73;100.00;96867.66;2039668;28;20226;-72
2021/12/02 03:32:22;;;;;;;16.80;15.80;;;;;;;7.71;100.00;96887.63;2038741;29;20229;-70
2021/12/02 03:33:24;;;;;;;17.15;16.15;;;;;;;7.62;100.00;96874.47;2030593;29;20223;-73
2021/12/02 03:34:25;;;;;;;16.98;16.00;;;;;;;7.69;100.00;96864.09;2030736;29;20280;-73
2021/12/02 03:35:26;;;;;;;16.83;15.73;;;;;;;7.66;100.00;96872.72;2038694;29;20330;-72
2021/12/02 03:36:28;;;;;;;16.77;15.77;;;;;;;7.65;100.00;96868.53;2039541;28;20235;-73
2021/12/02 03:37:30;;;;;;;17.15;16.05;;;;;;;7.56;100.00;96868.63;2039592;28;20223;-74
2021/12/02 03:38:33;;;;;;;16.73;15.48;;;;;;;7.58;100.00;96873.59;2039453;28;20599;-73
2021/12/02 03:39:36;;;;;;;16.35;15.35;;;;;;;7.67;100.00;96874.28;2039680;28;20667;-73
2021/12/02 03:40:37;;;;;;;16.27;15.27;;;;;;;7.64;100.00;96874.91;2038253;29;20231;-75
2021/12/02 03:41:39;;;;;;;16.40;15.37;;;;;;;7.59;100.00;96880.44;2030766;29;20287;-73
2021/12/02 03:42:47;;;;;;;17.17;16.15;;;;;;;7.55;100.00;96869.69;2038736;29;20314;-73
2021/12/02 03:43:49;;;;;;;17.00;16.00;;;;;;;7.57;100.00;96877.34;2039452;28;20578;-72
2021/12/02 03:44:50;;;;;;;16.40;15.40;;;;;;;7.59;100.00;96878.56;2038833;29;20619;-72
2021/12/02 03:45:55;;;;;;;16.47;15.37;;;;;;;7.52;100.00;96870.38;2031170;29;20227;-73
2021/12/02 03:46:57;;;;;;;16.73;15.73;;;;;;;7.53;100.00;96879.09;2031194;29;20639;-72
2021/12/02 03:47:58;;;;;;;16.98;15.93;;;;;;;7.47;100.00;96864.50;2039008;29;20342;-72
2021/12/02 03:49:00;;;;;;;17.93;16.73;;;;;;;7.41;100.00;96871.13;2038855;29;20768;-72
2021/12/02 03:50:01;;;;;;;17.40;16.13;;;;;;;7.35;100.00;96873.22;2039021;29;20222;-72
2021/12/02 03:51:03;;;;;;;17.50;16.40;;;;;;;7.33;100.00;96881.50;2038818;29;20701;-72
2021/12/02 03:52:05;;;;;;;17.20;16.00;;;;;;;7.37;100.00;96874.41;2039017;29;20270;-72
2021/12/02 03:53:06;;;;;;;16.60;15.50;;;;;;;7.34;100.00;96874.31;2038759;29;20313;-72
2021/12/02 03:54:09;;;;;;;16.73;15.63;;;;;;;7.31;100.00;96880.28;2038604;29;20298;-73
2021/12/02 03:55:10;;;;;;;17.20;16.10;;;;;;;7.28;100.00;96878.28;2038896;29;20289;-73
2021/12/02 03:56:13;;;;;;;18.13;16.93;;;;;;;7.28;100.00;96870.31;2039013;29;20713;-72
2021/12/02 03:57:14;;;;;;;17.13;16.02;;;;;;;7.29;100.00;96875.28;2039096;29;20694;-73
2021/12/02 03:58:15;;;;;;;17.33;16.13;;;;;;;7.29;100.00;96875.28;2038916;29;20226;-72
2021/12/02 03:59:19;;;;;;;16.58;15.38;;;;;;;7.29;100.00;96875.28;2039119;29;20223;-72
2021/12/02 04:00:20;;;;;;;16.33;15.13;;;;;;;7.30;100.00;96865.47;2038742;29;20222;-72
2021/12/02 04:01:22;;;;;;;17.00;15.80;;;;;;;7.32;100.00;96869.34;2039681;28;20235;-73
2021/12/02 04:02:23;;;;;;;16.63;15.63;;;;;;;7.33;100.00;96870.13;2038575;29;20263;-73
2021/12/02 04:03:25;;;;;;;16.40;15.40;;;;;;;7.30;100.00;96873.44;2038792;29;20685;-72
2021/12/02 04:04:26;;;;;;;16.90;15.80;;;;;;;7.23;100.00;96876.63;2038775;29;20697;-72
2021/12/02 04:05:29;;;;;;;17.57;16.27;;;;;;;7.24;100.00;96861.47;2030890;29;20670;-73
2021/12/02 04:06:31;;;;;;;16.98;15.63;;;;;;;7.30;100.00;96871.56;2031503;29;20239;-73
2021/12/02 04:07:33;;;;;;;16.65;15.63;;;;;;;7.19;100.00;96865.09;2038731;29;20266;-73
2021/12/02 04:08:41;;;;;;;17.13;15.82;;;;;;;7.27;100.00;96868.75;2038794;29;20717;-72
2021/12/02 04:09:45;;;;;;;17.17;15.88;;;;;;;7.22;100.00;96874.28;2038742;28;20234;-73
2021/12/02 04:10:47;;;;;;;16.88;15.88;;;;;;;7.16;100.00;96871.06;2039531;28;20318;-73
2021/12/02 04:11:55;;;;;;;16.67;15.50;;;;;;;7.10;100.00;96867.06;2038994;29;20301;-73
2021/12/02 04:13:04;;;;;;;16.95;15.75;;;;;;;7.09;100.00;96865.50;2038318;29;20239;-73
2021/12/02 04:14:19;;;;;;;16.73;15.63;;;;;;;7.07;100.00;96854.47;2038835;29;20262;-73
2021/12/02 04:15:24;;;;;;;17.45;16.35;;;;;;;7.14;100.00;96867.19;2038484;29;20226;-73
2021/12/02 04:16:26;;;;;;;16.10;15.10;;;;;;;7.12;100.00;96866.72;2030960;29;20300;-73
2021/12/02 04:17:41;;;;;;;16.77;15.68;;;;;;;7.03;100.00;96882.72;2038624;29;20312;-73
2021/12/02 04:18:42;;;;;;;16.55;15.45;;;;;;;7.01;100.00;96869.00;2038588;28;20238;-72
2021/12/02 04:19:45;;;;;;;16.70;15.60;;;;;;;6.96;100.00;96866.59;2039204;28;20222;-73
2021/12/02 04:20:46;;;;;;;16.00;14.90;;;;;;;6.94;100.00;96858.94;2039403;28;20226;-73
2021/12/02 04:21:48;;;;;;;16.38;14.93;;;;;;;7.00;100.00;96878.06;2037895;28;20226;-73
2021/12/02 04:22:49;;;;;;;16.75;15.65;;;;;;;7.02;100.00;96867.91;2038736;29;20219;-72
2021/12/02 04:23:51;;;;;;;16.55;15.55;;;;;;;7.03;100.00;96864.16;2038495;29;20382;-73
2021/12/02 04:24:53;;;;;;;16.38;15.35;;;;;;;7.03;100.00;96866.81;2038990;28;20568;-73
2021/12/02 04:25:58;;;;;;;16.30;15.25;;;;;;;7.03;100.00;96866.81;2038574;29;20764;-72
2021/12/02 04:26:59;;;;;;;15.93;14.93;;;;;;;7.05;100.00;96869.94;2031236;29;20230;-72
2021/12/02 04:28:01;;;;;;;16.45;15.45;;;;;;;6.97;100.00;96868.91;2030936;29;20245;-72
2021/12/02 04:29:02;;;;;;;16.38;15.27;;;;;;;6.92;100.00;96870.97;2038607;29;20223;-73
2021/12/02 04:30:05;;;;;;;17.02;15.93;;;;;;;6.98;100.00;96864.38;2039298;28;20674;-72
2021/12/02 04:31:07;;;;;;;15.48;14.57;;;;;;;6.99;100.00;96872.00;2039242;28;20704;-72
2021/12/02 04:32:09;;;;;;;16.85;15.75;;;;;;;7.04;100.00;96863.84;2038864;28;20227;-72
2021/12/02 04:33:10;;;;;;;16.33;15.23;;;;;;;7.10;100.00;96861.75;2039439;28;20281;-74
2021/12/02 04:34:13;;;;;;;16.52;15.52;;;;;;;7.04;100.00;96866.50;2039301;28;20241;-73
2021/12/02 04:35:15;;;;;;;16.05;15.02;;;;;;;6.95;100.00;96871.13;2038567;29;20760;-72
2021/12/02 04:36:17;;;;;;;16.58;15.40;;;;;;;6.92;100.00;96868.31;2031143;29;20227;-73
2021/12/02 04:37:18;;;;;;;16.60;15.50;;;;;;;6.89;100.00;96866.34;2038514;29;20261;-72
2021/12/02 04:38:20;;;;;;;16.50;15.40;;;;;;;6.87;100.00;96877.25;2039271;28;20277;-73
2021/12/02 04:39:21;;;;;;;16.75;15.57;;;;;;;6.86;100.00;96872.25;2039279;28;20305;-73
2021/12/02 04:40:24;;;;;;;17.00;15.90;;;;;;;6.87;100.00;96863.25;2039137;28;20226;-76
2021/12/02 04:41:25;;;;;;;17.15;16.05;;;;;;;6.84;100.00;96869.16;2039357;28;20313;-72
2021/12/02 04:42:27;;;;;;;15.93;15.03;;;;;;;6.87;100.00;96874.63;2039278;28;20238;-73
2021/12/02 04:43:28;;;;;;;15.90;15.00;;;;;;;6.79;100.00;96868.28;2038926;28;20231;-73
2021/12/02 04:44:29;;;;;;;16.20;15.20;;;;;;;6.79;100.00;96868.28;2038432;29;20226;-72
2021/12/02 04:45:30;;;;;;;16.17;15.15;;;;;;;6.84;100.00;96864.63;2037877;29;20285;-73
2021/12/02 04:46:33;;;;;;;17.63;16.43;;;;;;;6.78;100.00;96872.03;2038291;29;20237;-73
2021/12/02 04:47:35;;;;;;;17.55;16.45;;;;;;;6.84;100.00;96869.16;2038608;29;20309;-73
2021/12/02 04:48:37;;;;;;;17.85;16.70;;;;;;;6.79;100.00;96873.59;2038534;29;20223;-72
2021/12/02 04:49:38;;;;;;;17.38;16.27;;;;;;;6.79;100.00;96886.06;2038122;29;20234;-73
2021/12/02 04:50:40;;;;;;;16.97;15.80;;;;;;;6.82;100.00;96874.03;2038385;29;20227;-73
2021/12/02 04:51:41;;;;;;;17.42;16.42;;;;;;;6.77;100.00;96870.47;2038348;29;20230;-72
2021/12/02 04:52:42;;;;;;;17.90;16.80;;;;;;;6.78;100.00;96871.25;2038589;29;20297;-72
2021/12/02 04:53:44;;;;;;;18.67;17.27;;;;;;;6.75;100.00;96867.38;2038440;29;20306;-72
2021/12/02 04:54:46;;;;;;;17.27;16.17;;;;;;;6.77;100.00;96881.06;2039153;28;20591;-72